Aviation Digital Data Service (ADDS)

Output produced by METARs form (1854 UTC 01 October 2016)
found at http://aviationweather.gov/adds/metars/
 
KCLT 011720Z 0118/0218 21007KT P6SM FEW050 
     FM020600 35003KT P6SM SCT250 
     FM021500 21005KT P6SM BKN250